Cheektowaga, NY

8:35 PM EDT on October 25, 2014 (GMT -0400)
Buffalo Niagara International | Change Station
CLOSE
Current Station
Airport
Location: Buffalo,
Elevation: 702 ft
Nearby Weather Stations

Elev 702 ft 42.94 °N, 78.74 °W | Updated 41 minutes ago

Mostly Cloudy
Mostly Cloudy
56 °F
Feels Like 56 °F
N
9
Wind Variable Wind from SW

Today
High -- | Low -- °F
--% Chance of Precip.
Yesterday
High -- | Low -- °F
Precip. -- in
7:40 AM 6:16 PM
Waxing Crescent, 5% visible
Pressure 29.65 in
Visibility 5.0 miles
Clouds Few 1400 ft
Mostly Cloudy 2500 ft
Dew Point 53 °F
Humidity 90%
Rainfall 0.00 in
Snow Depth Not available.
UV 0 out of 12
Pollen 1.60 out of 12
PM2.5 Moderate
Flu Activity Sporadic
METAR KBUF 252354Z 23008KT 5SM BR FEW014 BKN025 13/12 A2964 RMK AO2 SLP038 T01330117 10161 20133 50005

More Conditions Fewer Conditions

Pressure 29.65 in
Visibility 5.0 miles
Clouds Few 1400 ft
Mostly Cloudy 2500 ft
Dew Point 53 °F
Humidity 90%
Rainfall 0.00 in
Snow Depth Not available.
UV 0 out of 12
Pollen 1.60 out of 12
PM2.5 Moderate
Flu Activity Sporadic
METAR KBUF 252354Z 23008KT 5SM BR FEW014 BKN025 13/12 A2964 RMK AO2 SLP038 T01330117 10161 20133 50005

More Conditions Fewer Conditions

10-Day Weather Forecast

Almanac

Astronomy

Oct. 25, 2014 Rise Set
Actual Time 7:40 AM EDT 6:16 PM EDT
Civil Twilight 7:11 AM EDT 6:45 PM EDT
Nautical Twilight 6:38 AM EDT 7:18 PM EDT
Astronomical Twilight 6:05 AM EDT 7:51 PM EDT
Moon 9:19 AM EDT (10/25) 7:36 PM EDT (10/25)
Length of Visible Light 11h 34m
Length of Day
10h 36m
Tomorrow will be 2m 41s shorter.
Waxing Crescent, 5% of the Moon is Illuminated
Today
Waxing Crescent
Oct 30
First Quarter
Nov 6
Full
Nov 14
Last Quarter
Nov 22
New

Today's Extremes

State Highs State Lows

Community

WunderPhotos

Upload Photos

1,765,052 photos uploaded!

Nearby

Air Quality

  Air Quality AQ Index Pollutant
Yesterday Good
PM2.5
Yesterday Good
OZONE
Current Moderate
PM2.5
Saturday Good
PM2.5
Sunday Good
PM2.5
Monday Good
PM2.5

Snow Depth

Station Depth Elevation
No new snow has been reported.

Earthquake Activity

City Distance Mag. Time & Date
No recent earthquake activity has been reported nearby.
Minimum magnitude displayed is 2.5.

Coastal Water Temperatures

Place Temperature
Buffalo, NY 57.0 °F

Nearby Weather Stations